createdAt,value
2018-06-22T00:00:28.972Z,2.72
2018-06-22T00:02:59.106Z,3.20
2018-06-22T00:05:29.167Z,2.83
2018-06-22T00:07:59.189Z,3.27
2018-06-22T00:10:29.102Z,2.57
2018-06-22T00:12:59.219Z,2.70
2018-06-22T00:15:29.131Z,3.00
2018-06-22T00:17:59.628Z,2.57
2018-06-22T00:20:29.849Z,3.73
2018-06-22T00:22:59.943Z,3.03
2018-06-22T00:25:29.938Z,2.77
2018-06-22T00:28:00.745Z,2.58
2018-06-22T00:50:25.865Z,2.90
2018-06-22T00:55:03.049Z,2.30
2018-06-22T00:57:32.954Z,2.60
2018-06-22T01:00:02.670Z,3.23
2018-06-22T01:02:33.030Z,2.50
2018-06-22T01:05:03.135Z,2.87
2018-06-22T01:07:33.444Z,2.47
2018-06-22T01:10:03.277Z,3.40
2018-06-22T01:12:33.079Z,3.43
2018-06-22T01:15:03.067Z,3.00
2018-06-22T01:17:33.789Z,3.57
2018-06-22T01:20:03.884Z,3.10
2018-06-22T01:22:34.025Z,2.80
2018-06-22T01:25:04.064Z,2.80
2018-06-22T01:27:34.062Z,2.77
2018-06-22T01:30:04.186Z,2.77
2018-06-22T01:32:34.292Z,3.20
2018-06-22T01:35:04.695Z,2.70
2018-06-22T01:37:34.788Z,2.83
2018-06-22T01:40:04.934Z,3.05
2018-06-22T01:42:34.887Z,3.10
2018-06-22T01:45:04.482Z,3.52
2018-06-22T01:47:34.609Z,2.63
2018-06-22T01:50:04.862Z,2.87
2018-06-22T01:52:35.002Z,3.53
2018-06-22T01:55:05.104Z,3.53
2018-06-22T01:57:35.364Z,3.40
2018-06-22T02:00:05.490Z,3.20
2018-06-22T02:02:35.730Z,3.33
2018-06-22T02:05:06.009Z,3.07
2018-06-22T02:07:36.022Z,2.90
2018-06-22T02:10:06.275Z,3.20
2018-06-22T02:12:36.579Z,2.93
2018-06-22T02:15:06.797Z,3.03
2018-06-22T02:17:37.033Z,3.40
2018-06-22T02:20:07.224Z,3.17
2018-06-22T02:22:37.363Z,3.40
2018-06-22T02:25:07.540Z,3.67
2018-06-22T02:27:37.654Z,2.50
2018-06-22T02:30:07.806Z,3.27
2018-06-22T02:32:38.308Z,3.30
2018-06-22T02:35:08.247Z,3.30
2018-06-22T02:37:38.643Z,3.37
2018-06-22T02:40:08.789Z,2.57
2018-06-22T02:42:38.819Z,3.10
2018-06-22T02:45:09.103Z,3.33
2018-06-22T02:47:39.253Z,3.35
2018-06-22T02:50:09.428Z,3.77
2018-06-22T02:52:39.408Z,2.90
2018-06-22T02:55:09.396Z,3.43
2018-06-22T02:57:39.315Z,2.83
2018-06-22T03:00:09.619Z,3.47
2018-06-22T03:02:39.676Z,3.20
2018-06-22T03:05:09.179Z,3.60
2018-06-22T03:07:39.452Z,3.70
2018-06-22T03:10:09.425Z,3.73
2018-06-22T03:12:39.509Z,3.60
2018-06-22T03:15:09.562Z,3.27
2018-06-22T03:17:39.513Z,3.37
2018-06-22T03:20:09.828Z,2.97
2018-06-22T03:22:39.744Z,3.67
2018-06-22T03:25:09.725Z,3.50
2018-06-22T03:27:39.688Z,3.60
2018-06-22T03:30:09.610Z,3.07
2018-06-22T03:32:39.897Z,3.13
2018-06-22T03:35:10.005Z,3.47
2018-06-22T03:37:39.980Z,3.30
2018-06-22T03:40:09.747Z,3.58
2018-06-22T03:42:39.701Z,3.17
2018-06-22T03:45:09.808Z,3.47
2018-06-22T03:47:40.188Z,3.33
2018-06-22T03:50:10.244Z,4.30
2018-06-22T03:52:43.918Z,3.67
2018-06-22T03:55:14.194Z,3.53
2018-06-22T03:57:44.690Z,4.08
2018-06-22T04:00:14.951Z,3.60
2018-06-22T04:02:45.195Z,3.80
2018-06-22T04:05:15.165Z,3.10
2018-06-22T04:07:45.229Z,3.87
2018-06-22T04:10:15.294Z,3.43
2018-06-22T04:12:45.543Z,3.87
2018-06-22T04:15:16.199Z,3.70
2018-06-22T04:17:51.567Z,3.70
2018-06-22T04:20:23.620Z,3.33
2018-06-22T04:22:54.066Z,3.67
2018-06-22T04:25:25.189Z,4.17
2018-06-22T04:27:55.083Z,4.03
2018-06-22T04:30:25.134Z,3.60
2018-06-22T04:32:55.405Z,3.33
2018-06-22T04:35:25.363Z,4.00
2018-06-22T04:37:55.399Z,3.23
2018-06-22T04:40:25.253Z,3.57
2018-06-22T04:42:55.334Z,3.70
2018-06-22T04:45:26.200Z,3.55
2018-06-22T04:47:57.273Z,4.30
2018-06-22T04:50:27.855Z,3.80
2018-06-22T04:52:57.989Z,3.43
2018-06-22T04:55:27.895Z,3.80
2018-06-22T04:57:58.249Z,3.50
2018-06-22T05:00:28.176Z,3.63
2018-06-22T05:02:58.565Z,3.70
2018-06-22T05:05:28.725Z,3.33
2018-06-22T05:07:58.715Z,3.53
2018-06-22T05:10:30.495Z,3.30
2018-06-22T05:13:00.470Z,3.53
2018-06-22T05:15:30.614Z,3.67
2018-06-22T05:18:00.846Z,3.20
2018-06-22T05:20:30.967Z,3.12
2018-06-22T05:23:01.155Z,3.33
2018-06-22T05:25:31.379Z,3.07
2018-06-22T05:28:01.555Z,3.35
2018-06-22T05:30:31.676Z,3.60
2018-06-22T05:33:01.790Z,3.67
2018-06-22T05:35:31.723Z,3.50
2018-06-22T05:38:01.766Z,3.97
2018-06-22T05:40:31.574Z,3.63
2018-06-22T05:43:01.744Z,4.20
2018-06-22T05:45:32.000Z,4.03
2018-06-22T05:48:02.229Z,3.85
2018-06-22T05:50:32.439Z,3.57
2018-06-22T05:53:02.508Z,3.23
2018-06-22T05:55:32.275Z,3.75
2018-06-22T05:58:02.253Z,3.20
2018-06-22T06:00:32.301Z,4.00
2018-06-22T06:03:02.294Z,3.80
2018-06-22T06:05:32.344Z,3.47
2018-06-22T06:08:02.245Z,3.87
2018-06-22T06:10:32.876Z,4.20
2018-06-22T06:13:03.788Z,3.55
2018-06-22T06:20:27.065Z,3.80
2018-06-22T06:22:57.588Z,4.60
2018-06-22T06:25:28.125Z,4.60
2018-06-22T06:27:58.475Z,3.60
2018-06-22T06:30:28.700Z,4.25
2018-06-22T06:32:58.953Z,3.75
2018-06-22T06:35:29.157Z,3.83
2018-06-22T06:37:59.485Z,3.63
2018-06-22T06:40:29.613Z,3.77
2018-06-22T06:42:59.604Z,4.12
2018-06-22T06:45:29.726Z,3.90
2018-06-22T06:48:00.003Z,3.90
2018-06-22T06:50:29.766Z,3.93
2018-06-22T06:52:59.866Z,6.47
2018-06-22T06:55:30.485Z,3.77
2018-06-22T06:58:00.784Z,4.75
2018-06-22T07:00:31.021Z,4.47
2018-06-22T07:03:01.069Z,4.97
2018-06-22T07:05:31.004Z,4.40
2018-06-22T07:08:01.954Z,4.47
2018-06-22T07:10:32.245Z,5.03
2018-06-22T07:13:02.149Z,5.13
2018-06-22T07:15:38.311Z,5.10
2018-06-22T07:18:09.080Z,4.83
2018-06-22T07:20:39.606Z,4.20
2018-06-22T07:23:09.919Z,4.63
2018-06-22T07:25:40.226Z,5.07
2018-06-22T07:28:10.196Z,4.30
2018-06-22T07:30:40.492Z,5.17
2018-06-22T07:33:10.400Z,4.13
2018-06-22T07:40:26.844Z,4.13
2018-06-22T07:42:56.699Z,4.30
2018-06-22T07:45:26.862Z,4.83
2018-06-22T07:47:56.846Z,4.83
2018-06-22T07:50:27.649Z,5.37
2018-06-22T07:52:57.558Z,4.67
2018-06-22T07:55:27.490Z,4.63
2018-06-22T07:57:57.516Z,5.43
2018-06-22T08:00:27.846Z,4.87
2018-06-22T08:02:58.159Z,5.10
2018-06-22T08:05:28.124Z,4.60
2018-06-22T08:07:57.814Z,4.87
2018-06-22T08:10:27.754Z,4.87
2018-06-22T08:12:57.801Z,4.73
2018-06-22T08:15:28.007Z,4.70
2018-06-22T08:17:58.741Z,4.70
2018-06-22T08:20:30.335Z,5.00
2018-06-22T08:23:01.446Z,5.45
2018-06-22T08:25:31.989Z,4.67
2018-06-22T08:28:02.170Z,4.85
2018-06-22T08:30:32.294Z,4.97
2018-06-22T08:33:02.461Z,4.97
2018-06-22T08:35:32.660Z,4.20
2018-06-22T08:38:02.740Z,4.17
2018-06-22T08:40:33.005Z,4.70
2018-06-22T08:43:03.207Z,4.07
2018-06-22T08:45:33.535Z,4.63
2018-06-22T08:48:03.581Z,4.90
2018-06-22T08:50:33.744Z,4.40
2018-06-22T08:53:03.806Z,4.03
2018-06-22T08:55:34.167Z,4.53
2018-06-22T08:58:04.477Z,4.27
2018-06-22T09:00:34.503Z,4.12
2018-06-22T09:03:04.625Z,4.67
2018-06-22T09:05:34.814Z,4.28
2018-06-22T09:08:04.993Z,4.05
2018-06-22T09:10:35.400Z,4.27
2018-06-22T09:13:05.361Z,3.58
2018-06-22T09:15:35.743Z,3.62
2018-06-22T09:18:05.959Z,4.20
2018-06-22T09:20:36.135Z,3.50
2018-06-22T09:23:06.254Z,3.70
2018-06-22T09:25:37.501Z,3.52
2018-06-22T09:28:07.777Z,4.03
2018-06-22T09:30:37.839Z,3.77
2018-06-22T09:33:08.850Z,3.77
2018-06-22T09:35:39.349Z,3.40
2018-06-22T09:38:09.373Z,3.23
2018-06-22T09:40:39.519Z,4.07
2018-06-22T09:43:09.276Z,3.33
2018-06-22T09:45:39.430Z,3.43
2018-06-22T09:48:10.277Z,3.50
2018-06-22T09:50:40.502Z,3.97
2018-06-22T09:53:10.578Z,3.47
2018-06-22T09:55:40.799Z,4.00
2018-06-22T09:58:11.060Z,3.93
2018-06-22T10:00:45.317Z,3.60
2018-06-22T10:03:15.396Z,3.60
2018-06-22T10:05:45.609Z,3.33
2018-06-22T10:08:16.004Z,3.27
2018-06-22T10:10:45.878Z,2.95
2018-06-22T10:13:16.987Z,3.20
2018-06-22T10:15:51.318Z,3.63
2018-06-22T10:18:21.474Z,3.03
2018-06-22T10:20:51.571Z,3.63
2018-06-22T10:23:21.855Z,4.13
2018-06-22T10:25:51.531Z,4.00
2018-06-22T10:28:21.777Z,3.60
2018-06-22T10:30:52.194Z,3.37
2018-06-22T10:33:22.616Z,3.03
2018-06-22T10:35:52.970Z,2.70
2018-06-22T10:38:23.224Z,3.23
2018-06-22T10:40:53.340Z,2.73
2018-06-22T10:43:24.087Z,2.50
2018-06-22T10:45:54.603Z,2.87
2018-06-22T10:48:24.755Z,3.10
2018-06-22T10:50:54.854Z,3.77
2018-06-22T10:53:25.235Z,3.75
2018-06-22T10:55:55.537Z,3.93
2018-06-22T10:58:25.657Z,3.90
2018-06-22T11:00:56.017Z,3.47
2018-06-22T11:03:26.435Z,3.15
2018-06-22T11:05:56.799Z,3.40
2018-06-22T11:08:26.913Z,2.87
2018-06-22T11:10:57.387Z,3.42
2018-06-22T11:13:27.621Z,3.67
2018-06-22T11:15:57.851Z,3.40
2018-06-22T11:18:28.248Z,3.30
2018-06-22T11:20:58.185Z,3.40
2018-06-22T11:23:28.451Z,3.85
2018-06-22T11:25:58.765Z,4.48
2018-06-22T11:28:28.859Z,4.00
2018-06-22T11:30:58.764Z,3.73
2018-06-22T11:33:28.754Z,3.60
2018-06-22T11:35:58.852Z,3.45
2018-06-22T11:38:29.102Z,3.07
2018-06-22T11:41:00.220Z,3.25
2018-06-22T11:43:31.227Z,2.90
2018-06-22T11:46:01.963Z,3.00
2018-06-22T11:50:26.320Z,3.27
2018-06-22T11:52:56.463Z,2.80
2018-06-22T11:55:26.904Z,2.73
2018-06-22T11:57:57.272Z,2.43
2018-06-22T12:00:27.375Z,2.50
2018-06-22T12:02:57.630Z,2.50
2018-06-22T12:05:27.602Z,2.43
2018-06-22T12:07:57.811Z,1.72
2018-06-22T12:10:28.132Z,1.32
2018-06-22T12:12:58.135Z,1.50
2018-06-22T12:15:28.278Z,1.90
2018-06-22T12:17:58.532Z,1.98
2018-06-22T12:20:28.903Z,1.50
2018-06-22T12:22:59.151Z,1.60
2018-06-22T12:25:29.218Z,2.03
2018-06-22T12:27:59.690Z,1.70
2018-06-22T12:30:29.596Z,1.90
2018-06-22T12:32:59.779Z,2.13
2018-06-22T12:35:29.993Z,1.80
2018-06-22T12:38:00.156Z,2.13
2018-06-22T12:40:30.465Z,2.12
2018-06-22T12:43:00.220Z,1.93
2018-06-22T12:45:30.262Z,2.10
2018-06-22T12:48:01.094Z,1.87
2018-06-22T12:50:31.218Z,2.10
2018-06-22T12:53:01.521Z,2.37
2018-06-22T12:55:31.578Z,2.10
2018-06-22T12:58:01.748Z,1.40
2018-06-22T13:00:31.597Z,6.00
2018-06-22T13:03:02.288Z,2.10
2018-06-22T13:05:32.362Z,1.80
2018-06-22T13:10:27.093Z,2.03
2018-06-22T13:12:57.482Z,2.30
2018-06-22T13:15:27.772Z,1.83
2018-06-22T13:17:58.438Z,2.83
2018-06-22T13:20:28.683Z,1.87
2018-06-22T13:22:59.260Z,2.50
2018-06-22T13:25:29.521Z,2.10
2018-06-22T13:28:00.436Z,2.20
2018-06-22T13:30:30.484Z,2.53
2018-06-22T13:33:00.933Z,2.80
2018-06-22T13:35:30.887Z,2.50
2018-06-22T13:38:01.103Z,2.85
2018-06-22T13:40:31.266Z,3.15
2018-06-22T13:43:01.471Z,3.10
2018-06-22T13:45:31.696Z,2.80
2018-06-22T13:48:01.874Z,3.20
2018-06-22T13:50:31.872Z,2.70
2018-06-22T13:53:02.020Z,2.70
2018-06-22T13:55:32.288Z,2.77
2018-06-22T13:58:02.376Z,2.70
2018-06-22T14:00:32.774Z,3.13
2018-06-22T14:03:02.946Z,2.43
2018-06-22T14:05:38.223Z,2.57
2018-06-22T14:08:08.075Z,2.60
2018-06-22T14:10:38.304Z,2.53
2018-06-22T14:13:08.445Z,2.80
2018-06-22T14:15:38.827Z,2.50
2018-06-22T14:18:09.126Z,2.53
2018-06-22T14:20:39.341Z,2.33
2018-06-22T14:23:09.800Z,2.70
2018-06-22T14:25:40.439Z,2.53
2018-06-22T14:28:10.758Z,2.70
2018-06-22T14:30:41.081Z,2.60
2018-06-22T14:33:11.949Z,2.80
2018-06-22T14:35:42.258Z,3.70
2018-06-22T14:38:12.502Z,2.70
2018-06-22T14:40:42.702Z,2.80
2018-06-22T14:43:12.979Z,2.43
2018-06-22T14:45:43.241Z,2.30
2018-06-22T14:48:13.501Z,2.23
2018-06-22T14:50:43.951Z,2.10
2018-06-22T14:53:19.812Z,2.40
2018-06-22T14:55:54.915Z,2.70
2018-06-22T14:58:30.137Z,1.80
2018-06-22T15:01:05.661Z,2.22
2018-06-22T15:03:40.727Z,2.00
2018-06-22T15:06:16.838Z,2.20
2018-06-22T15:08:47.310Z,1.60
2018-06-22T15:11:17.659Z,1.60
2018-06-22T15:13:49.216Z,1.53
2018-06-22T15:16:19.662Z,1.90
2018-06-22T15:18:49.488Z,1.73
2018-06-22T15:21:19.985Z,1.60
2018-06-22T15:23:50.116Z,1.60
2018-06-22T15:26:20.491Z,1.77
2018-06-22T15:28:50.615Z,1.77
2018-06-22T15:31:21.012Z,2.03
2018-06-22T15:33:56.261Z,1.63
2018-06-22T15:36:31.702Z,1.80
2018-06-22T15:39:06.957Z,2.03
2018-06-22T15:41:42.250Z,1.60
2018-06-22T15:44:17.164Z,1.80
2018-06-22T15:46:52.569Z,2.20
2018-06-22T15:49:28.378Z,2.13
2018-06-22T15:52:03.982Z,2.10
2018-06-22T15:54:39.176Z,2.40
2018-06-22T15:57:09.596Z,4.87
2018-06-22T15:59:40.126Z,3.00
2018-06-22T16:02:15.383Z,2.07
2018-06-22T16:04:45.504Z,2.27
2018-06-22T16:07:16.123Z,2.17
2018-06-22T16:09:51.433Z,2.20
2018-06-22T16:12:26.579Z,2.47
2018-06-22T16:15:02.079Z,2.13
2018-06-22T16:17:37.532Z,1.80
2018-06-22T16:20:12.938Z,2.23
2018-06-22T16:22:48.623Z,2.50
2018-06-22T16:25:24.042Z,1.90
2018-06-22T16:28:00.464Z,2.53
2018-06-22T16:30:31.275Z,2.10
2018-06-22T16:33:01.658Z,2.37
2018-06-22T16:35:32.103Z,2.30
2018-06-22T16:38:02.296Z,2.02
2018-06-22T16:40:32.544Z,2.07
2018-06-22T16:43:02.741Z,2.10
2018-06-22T16:45:32.771Z,2.65
2018-06-22T16:48:02.978Z,8.83
2018-06-22T16:50:33.255Z,1.70
2018-06-22T16:53:03.549Z,2.40
2018-06-22T16:55:33.822Z,2.23
2018-06-22T16:58:03.936Z,2.35
2018-06-22T17:00:34.303Z,2.23
2018-06-22T17:03:05.345Z,2.30
2018-06-22T17:05:35.434Z,2.03
2018-06-22T17:08:10.673Z,2.12
2018-06-22T17:10:46.602Z,2.30
2018-06-22T17:13:22.182Z,2.25
2018-06-22T17:15:57.889Z,2.43
2018-06-22T17:18:33.131Z,3.17
2018-06-22T17:21:04.927Z,2.50
2018-06-22T17:23:35.708Z,4.10
2018-06-22T17:30:27.098Z,2.20
2018-06-22T17:32:57.164Z,2.67
2018-06-22T17:35:27.164Z,2.30
2018-06-22T17:37:57.371Z,2.90
2018-06-22T17:40:27.632Z,2.23
2018-06-22T17:42:57.697Z,2.60
2018-06-22T17:45:27.932Z,2.60
2018-06-22T17:47:58.558Z,2.30
2018-06-22T17:50:29.272Z,2.55
2018-06-22T17:53:00.249Z,2.13
2018-06-22T17:55:30.689Z,2.10
2018-06-22T17:58:01.060Z,2.50
2018-06-22T18:00:36.751Z,2.10
2018-06-22T18:03:11.820Z,2.07
2018-06-22T18:05:47.208Z,2.50
2018-06-22T18:08:22.549Z,2.53
2018-06-22T18:10:58.108Z,2.03
2018-06-22T18:13:28.157Z,2.17
2018-06-22T18:15:58.212Z,2.50
2018-06-22T18:18:29.224Z,2.10
2018-06-22T18:20:59.799Z,2.27
2018-06-22T18:23:30.024Z,2.63
2018-06-22T18:26:00.731Z,2.60
2018-06-22T18:28:31.382Z,2.30
2018-06-22T18:31:01.607Z,2.90
2018-06-22T18:33:31.923Z,2.70
2018-06-22T18:36:02.887Z,2.30
2018-06-22T18:38:33.262Z,2.43
2018-06-22T18:41:03.755Z,3.20
2018-06-22T18:43:39.061Z,2.43
2018-06-22T18:46:09.595Z,2.70
2018-06-22T18:48:39.856Z,2.60
2018-06-22T18:51:10.405Z,2.80
2018-06-22T18:53:45.722Z,2.20
2018-06-22T18:56:20.952Z,3.20
2018-06-22T18:58:56.478Z,3.70
2018-06-22T19:01:31.666Z,2.70
2018-06-22T19:04:01.895Z,2.70
2018-06-22T19:06:32.342Z,3.15
2018-06-22T19:09:02.916Z,3.33
2018-06-22T19:11:33.271Z,3.07
2018-06-22T19:14:03.693Z,3.50
2018-06-22T19:16:34.591Z,5.23
2018-06-22T19:19:05.088Z,4.30
2018-06-22T19:21:35.712Z,4.15
2018-06-22T19:24:06.252Z,3.50
2018-06-22T19:26:36.507Z,3.27
2018-06-22T19:29:06.929Z,3.05
2018-06-22T19:31:37.661Z,3.05
2018-06-22T19:34:08.309Z,3.33
2018-06-22T19:36:38.860Z,3.27
2018-06-22T19:39:11.092Z,2.73
2018-06-22T19:41:42.093Z,3.42
2018-06-22T19:44:17.843Z,2.67
2018-06-22T19:46:53.550Z,3.03
2018-06-22T19:49:28.531Z,3.22
2018-06-22T19:52:04.795Z,3.13
2018-06-22T19:54:35.930Z,3.10
2018-06-22T19:57:06.465Z,2.83
2018-06-22T19:59:37.103Z,3.23
2018-06-22T20:02:07.737Z,2.80
2018-06-22T20:04:38.350Z,3.00
2018-06-22T20:07:09.698Z,3.10
2018-06-22T20:09:41.132Z,3.37
2018-06-22T20:12:11.829Z,3.37
2018-06-22T20:14:42.585Z,3.47
2018-06-22T20:17:12.982Z,3.30
2018-06-22T20:19:42.594Z,3.20
2018-06-22T20:22:12.650Z,3.43
2018-06-22T20:24:49.579Z,2.80
2018-06-22T20:27:19.986Z,3.67
2018-06-22T20:29:50.497Z,3.70
2018-06-22T20:32:21.004Z,2.60
2018-06-22T20:34:56.187Z,3.00
2018-06-22T20:37:31.554Z,3.40
2018-06-22T20:40:06.893Z,3.35
2018-06-22T20:42:42.427Z,3.50
2018-06-22T20:45:17.746Z,3.47
2018-06-22T20:47:53.036Z,3.27
2018-06-22T20:50:28.543Z,3.47
2018-06-22T20:52:58.827Z,3.17
2018-06-22T20:55:29.123Z,4.20
2018-06-22T20:57:59.231Z,3.87
2018-06-22T21:00:30.099Z,3.17
2018-06-22T21:03:01.692Z,4.10
2018-06-22T21:05:31.903Z,3.50
2018-06-22T21:08:03.139Z,3.80
2018-06-22T21:10:34.280Z,3.87
2018-06-22T21:13:05.744Z,3.92
2018-06-22T21:15:36.409Z,3.83
2018-06-22T21:18:06.618Z,3.80
2018-06-22T21:20:36.768Z,4.20
2018-06-22T21:23:07.185Z,3.90
2018-06-22T21:25:37.493Z,3.70
2018-06-22T21:29:10.451Z,4.17
2018-06-22T21:31:52.141Z,4.27
2018-06-22T21:34:27.689Z,3.77
2018-06-22T21:37:03.258Z,3.57
2018-06-22T21:39:33.359Z,4.22
2018-06-22T21:42:03.606Z,3.90
2018-06-22T21:44:33.688Z,3.75
2018-06-22T21:47:03.874Z,4.13
2018-06-22T21:49:33.708Z,4.72
2018-06-22T21:52:03.776Z,3.80
2018-06-22T21:54:33.902Z,4.13
2018-06-22T21:57:04.034Z,4.70
2018-06-22T21:59:34.549Z,4.10
2018-06-22T22:02:04.943Z,3.90
2018-06-22T22:04:35.304Z,3.62
2018-06-22T22:07:05.352Z,4.17
2018-06-22T22:09:40.253Z,3.67
2018-06-22T22:12:10.658Z,4.30
2018-06-22T22:14:41.740Z,4.50
2018-06-22T22:17:11.475Z,4.17
2018-06-22T22:19:42.188Z,4.00
2018-06-22T22:22:12.389Z,4.43
2018-06-22T22:24:42.427Z,4.20
2018-06-22T22:27:12.616Z,4.23
2018-06-22T22:29:42.911Z,4.00
2018-06-22T22:32:13.079Z,4.07
2018-06-22T22:34:43.072Z,4.00
2018-06-22T22:37:13.909Z,3.60
2018-06-22T22:39:45.509Z,3.60
2018-06-22T22:42:15.684Z,3.50
2018-06-22T22:44:45.912Z,3.60
2018-06-22T22:47:16.104Z,4.35
2018-06-22T22:49:46.224Z,4.47
2018-06-22T22:52:16.572Z,4.67
2018-06-22T22:54:46.792Z,3.80
2018-06-22T22:57:17.058Z,4.20
2018-06-22T22:59:47.249Z,3.77
2018-06-22T23:02:17.394Z,3.40
2018-06-22T23:04:47.435Z,3.67
2018-06-22T23:07:17.749Z,4.77
2018-06-22T23:09:47.843Z,3.77
2018-06-22T23:12:18.198Z,3.70
2018-06-22T23:14:48.406Z,4.03
2018-06-22T23:17:18.572Z,4.27
2018-06-22T23:19:48.688Z,3.90
2018-06-22T23:22:24.323Z,4.10
2018-06-22T23:24:54.450Z,4.30
2018-06-22T23:27:24.544Z,3.60
2018-06-22T23:29:54.720Z,4.25
2018-06-22T23:32:24.659Z,3.50
2018-06-22T23:34:54.732Z,4.83
2018-06-22T23:37:24.924Z,4.30
2018-06-22T23:39:55.318Z,4.43
2018-06-22T23:42:25.375Z,4.80
2018-06-22T23:44:55.425Z,4.80
2018-06-22T23:47:25.416Z,4.20
2018-06-22T23:49:55.711Z,4.27
2018-06-22T23:52:26.111Z,4.40
2018-06-22T23:54:56.277Z,4.70
2018-06-22T23:57:26.532Z,3.97
2018-06-22T23:59:56.748Z,5.15
